Virginia, Illinois
Current Conditions -  °F | °C
As of 12:35 AM on Sunday 21 Dec 2014 (Local Time) from KIJX Reporting Station
Overcast Overcast  
Wind Chill: 34°   Ceiling: 3400
Heat Index: 39°   Visibility: 7mi
Dew Point: 34°   Wind: 7mph
Humidity: 82%   Direction: 160°SSE
Pressure: 30.21"   Gusts: NA
Location:  39.95°N, 90.21°W
Report Text: KIJX 210635Z AUTO 16006KT 7SM OVC034 04/01 A3021 RMK AO2 T00400011
Loading
Personal Weather Stations






























Interactive Weather Map New forecast layout! Learn more

10-Day Weather Forecast

Advertisements
Track Severe Weather on mobile